Time;durP1;ratioP1;P1;durP2;ratioP2;P2;SDS_P1;SDS_P2;PMS_P1;PMS_P2;Temp;Humidity;BMP_temperature;BMP_pressure;BME280_temperature;BME280_humidity;BME280_pressure;Samples;Min_cycle;Max_cycle;Signal;HPM_P1;HPM_P2
2021/12/09 00:00:43;;;;;;;14.52;7.47;;;;;;;1.42;87.43;100162.06;5011078;28;20033;-63
2021/12/09 00:03:11;;;;;;;13.73;8.13;;;;;;;1.39;87.19;100161.44;5010534;28;20129;-63
2021/12/09 00:05:38;;;;;;;11.45;7.93;;;;;;;1.40;87.02;100174.13;5010516;28;20026;-64
2021/12/09 00:08:05;;;;;;;14.57;7.80;;;;;;;1.37;87.41;100169.16;5010525;28;20155;-63
2021/12/09 00:10:31;;;;;;;13.30;7.82;;;;;;;1.37;87.53;100158.94;5010498;28;20038;-64
2021/12/09 00:12:57;;;;;;;13.60;8.32;;;;;;;1.33;87.44;100162.59;5010432;28;20026;-63
2021/12/09 00:15:22;;;;;;;14.57;7.63;;;;;;;1.33;87.53;100160.03;4980667;28;20437;-63
2021/12/09 00:17:47;;;;;;;15.40;8.55;;;;;;;1.28;87.45;100149.25;5005960;28;20053;-63
2021/12/09 00:20:13;;;;;;;14.27;7.82;;;;;;;1.34;87.58;100161.69;5010643;28;20037;-63
2021/12/09 00:22:39;;;;;;;12.75;7.88;;;;;;;1.32;87.76;100166.88;5010101;28;20026;-63
2021/12/09 00:25:05;;;;;;;14.27;8.07;;;;;;;1.30;87.59;100170.41;5000223;28;20359;-63
2021/12/09 00:27:30;;;;;;;14.38;7.95;;;;;;;1.29;87.40;100161.09;4992057;28;20117;-63
2021/12/09 00:29:56;;;;;;;12.80;8.13;;;;;;;1.28;87.66;100167.13;5009487;28;20170;-63
2021/12/09 00:32:22;;;;;;;13.45;8.00;;;;;;;1.29;87.19;100166.22;5009724;28;20038;-64
2021/12/09 00:34:49;;;;;;;12.52;8.23;;;;;;;1.29;87.57;100171.31;5012835;28;20057;-63
2021/12/09 00:37:21;;;;;;;16.43;8.17;;;;;;;1.26;87.41;100166.38;4988158;28;20021;-63
2021/12/09 00:39:49;;;;;;;13.65;8.02;;;;;;;1.26;87.83;100166.38;5000359;28;20467;-63
2021/12/09 00:42:16;;;;;;;14.23;8.17;;;;;;;1.27;87.59;100162.94;4994896;28;20026;-63
2021/12/09 00:44:42;;;;;;;13.18;8.43;;;;;;;1.25;87.85;100154.50;4995682;28;20113;-62
2021/12/09 00:47:07;;;;;;;16.65;8.48;;;;;;;1.19;87.68;100159.94;4990560;28;20675;-63
2021/12/09 00:49:33;;;;;;;13.18;7.45;;;;;;;1.24;87.90;100173.28;5009092;28;20664;-63
2021/12/09 00:51:58;;;;;;;15.73;8.18;;;;;;;1.22;87.76;100164.91;5010058;28;20029;-64
2021/12/09 00:54:24;;;;;;;13.98;8.05;;;;;;;1.23;88.01;100176.75;5010003;28;20017;-64
2021/12/09 00:56:49;;;;;;;14.40;8.00;;;;;;;1.22;88.04;100170.00;5010203;28;20073;-64
2021/12/09 00:59:15;;;;;;;13.25;7.90;;;;;;;1.24;88.19;100168.19;5010629;28;20453;-65
2021/12/09 01:01:40;;;;;;;15.80;8.35;;;;;;;1.25;88.09;100175.75;5010302;28;20049;-63
2021/12/09 01:04:06;;;;;;;12.15;7.72;;;;;;;1.28;88.23;100182.44;5010839;28;20425;-63
2021/12/09 01:06:31;;;;;;;15.07;7.80;;;;;;;1.29;87.72;100181.53;5010152;28;20029;-63
2021/12/09 01:08:57;;;;;;;13.77;8.32;;;;;;;1.27;88.30;100162.94;5009761;28;20029;-63
2021/12/09 01:11:22;;;;;;;16.35;8.02;;;;;;;1.27;88.28;100173.16;5010712;28;20034;-63
2021/12/09 01:13:49;;;;;;;15.40;7.72;;;;;;;1.28;87.85;100177.34;5009810;28;20046;-63
2021/12/09 01:16:14;;;;;;;15.48;8.13;;;;;;;1.28;87.65;100175.59;5010685;28;20025;-63
2021/12/09 01:18:41;;;;;;;15.35;7.93;;;;;;;1.26;87.80;100177.44;4987075;28;20034;-63
2021/12/09 01:21:07;;;;;;;13.48;8.10;;;;;;;1.25;88.24;100174.94;5007462;28;20084;-64
2021/12/09 01:23:33;;;;;;;13.90;7.97;;;;;;;1.21;87.97;100179.41;5009946;28;20045;-64
2021/12/09 01:26:02;;;;;;;14.65;7.55;;;;;;;1.22;87.77;100181.03;5009966;28;20122;-63
2021/12/09 01:28:31;;;;;;;13.23;7.93;;;;;;;1.23;88.03;100181.88;4997440;28;20030;-63
2021/12/09 01:31:06;;;;;;;12.70;7.28;;;;;;;1.20;87.76;100187.94;4988247;28;20069;-63
2021/12/09 01:33:33;;;;;;;15.07;8.50;;;;;;;1.21;88.05;100193.91;5011155;28;20026;-63
2021/12/09 01:35:59;;;;;;;14.10;7.47;;;;;;;1.21;88.17;100193.91;5018985;28;20022;-63
2021/12/09 01:38:29;;;;;;;14.70;8.57;;;;;;;1.20;87.81;100198.16;4989548;28;20497;-64
2021/12/09 01:40:55;;;;;;;13.55;7.60;;;;;;;1.19;87.96;100198.25;4997212;28;20026;-63
2021/12/09 01:43:21;;;;;;;13.90;7.93;;;;;;;1.18;88.16;100188.94;5008725;28;20084;-63
2021/12/09 01:45:47;;;;;;;15.98;8.10;;;;;;;1.13;87.90;100180.69;4998012;28;20496;-63
2021/12/09 01:48:13;;;;;;;17.20;8.27;;;;;;;1.15;87.94;100189.94;4997722;28;20140;-63
2021/12/09 01:50:38;;;;;;;15.00;8.27;;;;;;;1.08;87.88;100177.56;5009352;28;20478;-63
2021/12/09 01:53:07;;;;;;;12.07;7.47;;;;;;;1.10;88.35;100186.81;5009351;28;20363;-63
2021/12/09 01:55:33;;;;;;;15.15;7.82;;;;;;;1.08;87.69;100182.66;5001468;28;20022;-63
2021/12/09 01:58:00;;;;;;;13.63;8.00;;;;;;;1.08;87.99;100187.78;4995205;28;20036;-63
2021/12/09 02:00:27;;;;;;;14.88;8.10;;;;;;;1.08;88.57;100182.66;5009671;28;20561;-63
2021/12/09 02:02:53;;;;;;;14.52;7.90;;;;;;;1.08;88.45;100182.66;5010036;28;20058;-64
2021/12/09 02:05:20;;;;;;;12.38;7.47;;;;;;;1.05;87.84;100181.13;5009788;28;20046;-64
2021/12/09 02:07:46;;;;;;;14.18;7.90;;;;;;;1.04;87.80;100180.28;4989130;28;20104;-64
2021/12/09 02:10:15;;;;;;;14.82;8.07;;;;;;;1.00;88.27;100171.13;5004915;28;20149;-63
2021/12/09 02:12:41;;;;;;;13.43;8.27;;;;;;;1.03;87.96;100171.00;4998856;28;20040;-63
2021/12/09 02:15:07;;;;;;;17.30;7.95;;;;;;;1.02;87.97;100179.53;5009621;28;20041;-63
2021/12/09 02:17:33;;;;;;;12.57;7.93;;;;;;;1.01;88.21;100177.88;4978393;28;20387;-63
2021/12/09 02:20:02;;;;;;;14.40;8.05;;;;;;;0.99;88.32;100163.56;5006493;28;20026;-63
2021/12/09 02:22:29;;;;;;;15.35;8.05;;;;;;;0.97;88.10;100162.78;4974847;28;20533;-64
2021/12/09 02:24:55;;;;;;;14.80;7.65;;;;;;;0.98;88.40;100167.03;4999561;28;20044;-63
2021/12/09 02:27:22;;;;;;;15.50;7.93;;;;;;;0.97;88.33;100166.16;4994617;28;20026;-63
2021/12/09 02:29:49;;;;;;;12.80;7.65;;;;;;;0.96;88.33;100164.53;4993550;28;20105;-63
2021/12/09 02:32:14;;;;;;;13.70;6.90;;;;;;;0.95;88.17;100168.00;5011071;28;20045;-64
2021/12/09 02:34:39;;;;;;;15.75;7.50;;;;;;;0.95;88.32;100168.00;4984258;28;20027;-71
2021/12/09 02:37:05;;;;;;;11.63;7.18;;;;;;;0.92;87.96;100165.63;5009099;28;20157;-73
2021/12/09 02:39:30;;;;;;;13.40;7.45;;;;;;;0.91;88.28;100174.16;5006832;28;20426;-65
2021/12/09 02:41:56;;;;;;;15.57;7.40;;;;;;;0.91;88.03;100176.72;4990290;28;20030;-63
2021/12/09 02:44:22;;;;;;;12.75;7.13;;;;;;;0.93;88.31;100172.38;4999977;28;20027;-63
2021/12/09 02:46:51;;;;;;;14.30;7.47;;;;;;;0.91;88.74;100170.78;4995124;28;20485;-63
2021/12/09 02:49:18;;;;;;;;;;;;;;;1.02;88.38;100171.88;5003232;28;20034;-63
2021/12/09 02:51:45;;;;;;;13.10;7.03;;;;;;;0.92;88.03;100182.63;4998617;28;19921;-64
2021/12/09 02:54:12;;;;;;;14.80;7.32;;;;;;;0.89;88.46;100178.53;4995195;28;20022;-65
2021/12/09 02:56:38;;;;;;;12.70;6.85;;;;;;;0.92;88.35;100183.50;5004579;28;20041;-64
2021/12/09 02:59:05;;;;;;;14.75;7.43;;;;;;;0.89;88.10;100178.53;4993084;28;20084;-64
2021/12/09 03:01:34;;;;;;;15.98;7.68;;;;;;;0.84;88.49;100169.47;5005279;28;20435;-63
2021/12/09 03:04:01;;;;;;;;;;;;;;;0.99;87.95;100195.03;5002506;28;20065;-64
2021/12/09 03:06:36;;;;;;;13.73;7.15;;;;;;;0.92;88.08;100197.94;5001068;28;19921;-64
2021/12/09 03:09:09;;;;;;;13.40;6.95;;;;;;;0.88;88.47;100192.19;4993783;28;20038;-63
2021/12/09 03:11:35;;;;;;;15.73;7.70;;;;;;;0.87;88.25;100200.78;4966732;28;20494;-64
2021/12/09 03:14:01;;;;;;;15.57;7.15;;;;;;;0.87;88.10;100195.66;4988559;28;20045;-63
2021/12/09 03:16:27;;;;;;;13.52;6.60;;;;;;;0.87;88.40;100200.78;4993111;28;20038;-62
2021/12/09 03:18:56;;;;;;;13.63;7.55;;;;;;;0.85;88.20;100197.44;5007422;28;20076;-64
2021/12/09 03:21:28;;;;;;;12.32;6.53;;;;;;;0.83;88.33;100212.03;5000095;28;20055;-63
2021/12/09 03:23:56;;;;;;;11.98;6.72;;;;;;;0.83;88.41;100216.31;4974523;28;20045;-63
2021/12/09 03:26:29;;;;;;;14.93;7.30;;;;;;;0.83;88.58;100212.03;5004102;28;20370;-63
2021/12/09 03:28:55;;;;;;;14.18;6.95;;;;;;;0.82;88.34;100218.03;5005781;28;20113;-63
2021/12/09 03:31:21;;;;;;;13.38;6.93;;;;;;;0.83;88.27;100213.75;5012522;28;20108;-63
2021/12/09 03:33:47;;;;;;;12.80;7.20;;;;;;;0.79;87.91;100213.09;5011229;28;20487;-63
2021/12/09 03:36:12;;;;;;;14.32;7.25;;;;;;;0.82;88.55;100212.94;4990758;28;20030;-63
2021/12/09 03:38:37;;;;;;;12.88;6.78;;;;;;;0.81;88.50;100221.50;5011521;28;20505;-64
2021/12/09 03:41:03;;;;;;;14.25;6.60;;;;;;;0.77;88.17;100223.38;4998286;28;20030;-64
2021/12/09 03:43:29;;;;;;;13.23;6.90;;;;;;;0.79;88.44;100230.94;5001992;28;20041;-64
2021/12/09 03:45:55;;;;;;;12.75;7.30;;;;;;;0.76;88.61;100220.91;4987904;28;20121;-63
2021/12/09 03:48:23;;;;;;;12.85;6.40;;;;;;;0.73;88.29;100215.94;4993067;28;20049;-63
2021/12/09 03:50:48;;;;;;;12.95;7.13;;;;;;;0.74;88.30;100226.06;4992474;28;20030;-63
2021/12/09 03:53:14;;;;;;;12.13;7.03;;;;;;;0.74;88.05;100222.69;4997831;28;20421;-64
2021/12/09 03:55:40;;;;;;;12.35;6.65;;;;;;;0.75;88.54;100237.13;4992482;28;20496;-64
2021/12/09 03:58:06;;;;;;;14.70;7.25;;;;;;;0.73;88.22;100229.53;5010927;28;20033;-64
2021/12/09 04:00:31;;;;;;;15.40;7.00;;;;;;;0.73;88.38;100228.72;5001633;28;20490;-63
2021/12/09 04:02:57;;;;;;;15.00;7.05;;;;;;;0.71;88.29;100228.78;4979842;28;20486;-63
2021/12/09 04:05:23;;;;;;;12.75;6.47;;;;;;;0.70;88.76;100226.31;5001535;28;20034;-63
2021/12/09 04:07:48;;;;;;;13.55;6.78;;;;;;;0.72;88.67;100221.97;4975963;28;20038;-63
2021/12/09 04:10:14;;;;;;;13.65;6.93;;;;;;;0.70;88.74;100223.78;5000496;28;20037;-63
2021/12/09 04:12:40;;;;;;;12.10;6.85;;;;;;;0.71;88.31;100225.41;4989126;28;20029;-63
2021/12/09 04:15:06;;;;;;;15.10;7.18;;;;;;;0.69;88.20;100222.94;4973900;28;20062;-63
2021/12/09 04:17:31;;;;;;;13.35;6.70;;;;;;;0.67;88.37;100218.81;4994310;28;20375;-64
2021/12/09 04:19:57;;;;;;;14.88;7.28;;;;;;;0.67;88.17;100213.72;4984819;28;20027;-63
2021/12/09 04:22:22;;;;;;;13.77;7.45;;;;;;;0.64;88.58;100207.03;4992911;28;20038;-63
2021/12/09 04:24:49;;;;;;;12.45;6.70;;;;;;;0.67;88.56;100223.91;4995733;28;20382;-63
2021/12/09 04:27:15;;;;;;;15.07;7.05;;;;;;;0.62;88.56;100226.69;4993395;28;20037;-63
2021/12/09 04:29:41;;;;;;;12.80;6.35;;;;;;;0.63;88.59;100232.63;4993064;28;20057;-64
2021/12/09 04:32:07;;;;;;;12.90;6.38;;;;;;;0.62;88.50;100231.78;4980231;28;20033;-63
2021/12/09 04:34:32;;;;;;;12.70;6.43;;;;;;;0.62;88.50;100238.63;5002050;28;20032;-63
2021/12/09 04:36:59;;;;;;;16.73;7.43;;;;;;;0.62;88.40;100236.91;4996597;28;20419;-63
2021/12/09 04:39:24;;;;;;;14.95;6.90;;;;;;;0.59;88.63;100236.25;4991318;28;20500;-63
2021/12/09 04:41:50;;;;;;;11.57;6.43;;;;;;;0.59;88.46;100238.78;5002999;28;20026;-64
2021/12/09 04:44:16;;;;;;;13.75;6.80;;;;;;;0.52;88.33;100234.00;4995717;28;20033;-63
2021/12/09 04:46:42;;;;;;;11.63;5.68;;;;;;;0.56;88.64;100241.47;4996615;28;20036;-63
2021/12/09 04:49:07;;;;;;;14.45;6.03;;;;;;;0.56;88.59;100246.59;4996619;28;20073;-64
2021/12/09 04:51:34;;;;;;;13.00;6.10;;;;;;;0.55;88.65;100244.94;4981162;28;20022;-63
2021/12/09 04:53:59;;;;;;;12.48;5.97;;;;;;;0.57;88.62;100243.13;4997448;28;20057;-64
2021/12/09 04:56:24;;;;;;;13.15;5.85;;;;;;;0.50;88.37;100228.13;4998367;28;20021;-63
2021/12/09 04:58:50;;;;;;;11.50;6.03;;;;;;;0.49;88.30;100239.25;5011021;28;20034;-63
2021/12/09 05:01:16;;;;;;;12.05;5.78;;;;;;;0.50;88.48;100233.22;4975546;28;20060;-63
2021/12/09 05:03:45;;;;;;;13.32;5.90;;;;;;;0.51;88.47;100229.78;4993149;28;20046;-63
2021/12/09 05:06:11;;;;;;;12.98;5.93;;;;;;;0.50;88.53;100227.31;4991305;28;20077;-63
2021/12/09 05:08:39;;;;;;;11.60;5.97;;;;;;;0.51;88.33;100234.88;4990615;28;20069;-63
2021/12/09 05:13:33;;;;;;;13.35;5.75;;;;;;;0.48;88.73;100244.44;5001866;28;20066;-63
2021/12/09 05:15:59;;;;;;;10.02;5.47;;;;;;;0.49;88.50;100244.34;4991731;28;20019;-63
2021/12/09 05:18:28;;;;;;;11.60;5.53;;;;;;;0.46;88.46;100252.16;4992973;28;20066;-63
2021/12/09 05:20:53;;;;;;;10.82;4.88;;;;;;;0.47;88.30;100248.72;4979026;28;20475;-64
2021/12/09 05:23:21;;;;;;;12.82;6.30;;;;;;;0.45;88.31;100255.59;4989263;28;20034;-63
2021/12/09 05:25:46;;;;;;;11.25;5.25;;;;;;;0.41;88.51;100254.09;4991457;28;20052;-63
2021/12/09 05:28:15;;;;;;;12.68;5.32;;;;;;;0.45;88.43;100260.69;4988278;28;20474;-64
2021/12/09 05:33:28;;;;;;;12.07;5.25;;;;;;;0.42;88.30;100250.66;4994359;28;20057;-63
2021/12/09 05:35:54;;;;;;;10.52;4.93;;;;;;;0.41;88.47;100254.09;4990103;28;20451;-63
2021/12/09 05:38:20;;;;;;;13.35;5.28;;;;;;;0.42;88.72;100250.66;4998638;28;20033;-63
2021/12/09 05:40:46;;;;;;;14.15;5.30;;;;;;;0.43;88.80;100257.41;4998072;28;20022;-63
2021/12/09 05:43:12;;;;;;;10.25;5.05;;;;;;;0.42;88.73;100255.75;4989143;28;20030;-63
2021/12/09 05:45:38;;;;;;;11.85;5.45;;;;;;;0.43;88.81;100257.41;4987751;28;20114;-64
2021/12/09 05:48:04;;;;;;;13.13;5.82;;;;;;;0.42;88.67;100260.84;4991824;28;20073;-64
2021/12/09 05:50:29;;;;;;;12.15;5.32;;;;;;;0.42;88.63;100271.06;4983684;28;20038;-64
2021/12/09 05:52:54;;;;;;;14.15;5.43;;;;;;;0.41;88.94;100264.31;4987581;28;20065;-63
2021/12/09 05:55:20;;;;;;;13.55;5.85;;;;;;;0.41;88.62;100263.50;4986946;28;20026;-63
2021/12/09 05:57:45;;;;;;;11.02;5.03;;;;;;;0.43;88.72;100277.81;4975447;28;20522;-63
2021/12/09 06:00:11;;;;;;;13.40;5.78;;;;;;;0.44;88.67;100274.34;4988586;28;20542;-62
2021/12/09 06:02:36;;;;;;;12.38;5.07;;;;;;;0.43;88.92;100267.59;4997127;28;20050;-63
2021/12/09 06:05:04;;;;;;;15.80;5.72;;;;;;;0.42;88.97;100270.25;5016733;28;20022;-63
2021/12/09 06:07:29;;;;;;;11.68;5.40;;;;;;;0.42;88.67;100265.97;4997205;28;20036;-63
2021/12/09 06:09:55;;;;;;;13.10;5.30;;;;;;;0.41;89.28;100269.41;5003664;28;20121;-63
2021/12/09 06:12:21;;;;;;;10.13;5.95;;;;;;;0.37;89.03;100262.81;4988596;28;20120;-62
2021/12/09 06:14:47;;;;;;;11.23;5.45;;;;;;;0.35;89.20;100264.59;5009202;28;20388;-63
2021/12/09 06:17:12;;;;;;;12.82;5.72;;;;;;;0.37;88.91;100267.91;5005103;28;20034;-63
2021/12/09 06:19:38;;;;;;;13.68;5.93;;;;;;;0.33;88.81;100260.47;5004439;28;20045;-64
2021/12/09 06:22:03;;;;;;;13.88;6.13;;;;;;;0.33;88.89;100261.28;4992434;28;20606;-63
2021/12/09 06:24:29;;;;;;;14.75;6.53;;;;;;;0.36;88.67;100270.53;4996099;28;20022;-63
2021/12/09 06:26:54;;;;;;;13.23;6.15;;;;;;;0.33;88.97;100261.28;4995852;28;20479;-63
2021/12/09 06:29:20;;;;;;;13.93;6.10;;;;;;;0.34;88.88;100255.28;4987797;28;20026;-64
2021/12/09 06:31:45;;;;;;;14.23;5.80;;;;;;;0.35;88.95;100268.88;4986484;28;20456;-63
2021/12/09 06:34:12;;;;;;;14.82;6.00;;;;;;;0.33;89.00;100263.84;4984455;28;20046;-63
2021/12/09 06:36:39;;;;;;;14.93;6.43;;;;;;;0.32;88.85;100258.81;4990288;28;20463;-62
2021/12/09 06:39:05;;;;;;;11.15;5.75;;;;;;;0.34;88.93;100278.25;5000255;28;20048;-63
2021/12/09 06:41:31;;;;;;;15.70;7.55;;;;;;;0.32;88.99;100280.03;4979350;28;20030;-63
2021/12/09 06:43:56;;;;;;;12.35;6.10;;;;;;;0.33;89.00;100279.16;4987132;28;20045;-63
2021/12/09 06:46:22;;;;;;;14.55;6.25;;;;;;;0.32;89.18;100285.16;4991314;28;20041;-66
2021/12/09 06:48:47;;;;;;;12.05;6.22;;;;;;;0.29;88.81;100282.75;4985074;28;20040;-63
2021/12/09 06:51:12;;;;;;;12.40;6.00;;;;;;;0.32;89.18;100290.25;4994361;28;20152;-64
2021/12/09 06:53:38;;;;;;;13.70;6.57;;;;;;;0.31;89.50;100290.34;4997201;28;20026;-62
2021/12/09 06:56:05;;;;;;;14.73;6.95;;;;;;;0.31;89.24;100288.59;4995293;28;20034;-63
2021/12/09 06:58:30;;;;;;;13.25;6.57;;;;;;;0.31;89.25;100288.59;5001618;28;20038;-63
2021/12/09 07:00:56;;;;;;;11.38;5.85;;;;;;;0.33;89.34;100288.53;5002221;28;20022;-64
2021/12/09 07:03:23;;;;;;;13.40;6.85;;;;;;;0.28;89.36;100286.19;5010789;28;20037;-64
2021/12/09 07:05:50;;;;;;;12.93;6.25;;;;;;;0.29;89.24;100295.50;4994056;28;20034;-63
2021/12/09 07:08:16;;;;;;;13.77;6.05;;;;;;;0.32;89.20;100292.78;4992487;28;20497;-62
2021/12/09 07:10:42;;;;;;;12.70;6.53;;;;;;;0.32;89.49;100300.44;4995011;28;20022;-63
2021/12/09 07:13:08;;;;;;;13.13;6.07;;;;;;;0.32;89.20;100300.44;4989812;28;20030;-63
2021/12/09 07:15:34;;;;;;;15.50;6.70;;;;;;;0.31;89.10;100298.81;4993226;28;20038;-64
2021/12/09 07:18:00;;;;;;;13.43;6.43;;;;;;;0.26;89.43;100295.66;5006892;28;20065;-64
2021/12/09 07:20:29;;;;;;;13.90;6.90;;;;;;;0.28;89.19;100298.94;4991054;28;20050;-63
2021/12/09 07:22:56;;;;;;;14.32;7.45;;;;;;;0.29;89.34;100295.50;4991527;28;20065;-62
2021/12/09 07:25:23;;;;;;;16.67;7.05;;;;;;;0.28;89.33;100304.03;4994623;28;20044;-65
2021/12/09 07:27:49;;;;;;;14.82;6.43;;;;;;;0.25;89.50;100299.09;4992566;28;20038;-63
2021/12/09 07:30:16;;;;;;;13.13;6.28;;;;;;;0.28;89.20;100303.22;4987824;28;20073;-64
2021/12/09 07:32:43;;;;;;;14.23;6.60;;;;;;;0.26;89.20;100300.75;4986653;28;20105;-63
2021/12/09 07:35:11;;;;;;;13.15;6.38;;;;;;;0.25;89.29;100299.09;4991718;28;20114;-64
2021/12/09 07:37:38;;;;;;;13.57;6.87;;;;;;;0.28;89.24;100303.22;4989459;28;20022;-63
2021/12/09 07:40:10;;;;;;;12.68;6.78;;;;;;;0.25;89.47;100309.31;4988204;28;20054;-63
2021/12/09 07:42:36;;;;;;;12.82;6.43;;;;;;;0.25;89.23;100309.31;4987336;28;20038;-64
2021/12/09 07:45:04;;;;;;;12.48;6.35;;;;;;;0.23;89.47;100313.63;5004536;28;20761;-64
2021/12/09 07:47:29;;;;;;;14.93;6.65;;;;;;;0.26;89.41;100313.50;5004369;28;20040;-63
2021/12/09 07:49:54;;;;;;;13.18;6.50;;;;;;;0.26;89.42;100306.66;4991649;28;20034;-62
2021/12/09 07:52:20;;;;;;;14.10;6.57;;;;;;;0.25;89.53;100314.41;4992455;28;20029;-62
2021/12/09 07:54:45;;;;;;;15.32;6.50;;;;;;;0.25;89.34;100301.66;4993711;28;20040;-63
2021/12/09 07:57:10;;;;;;;12.43;7.03;;;;;;;0.26;89.34;100305.84;5003097;28;20029;-63
2021/12/09 07:59:36;;;;;;;10.40;6.63;;;;;;;0.26;89.56;100299.03;5008122;28;20470;-66
2021/12/09 08:02:02;;;;;;;14.82;6.75;;;;;;;0.27;89.37;100312.59;4984206;28;20050;-65
2021/12/09 08:04:27;;;;;;;14.73;6.90;;;;;;;0.26;89.74;100308.41;5004197;28;20109;-63
2021/12/09 08:06:53;;;;;;;13.80;6.78;;;;;;;0.22;89.52;100309.44;4996770;28;20141;-63
2021/12/09 08:09:18;;;;;;;13.82;6.32;;;;;;;0.30;89.63;100312.47;4992128;28;20121;-63
2021/12/09 08:11:44;;;;;;;12.30;6.20;;;;;;;0.30;89.57;100317.56;4996583;28;20297;-63
2021/12/09 08:14:11;;;;;;;17.85;6.72;;;;;;;0.33;89.80;100327.59;4985161;28;20026;-64
2021/12/09 08:16:38;;;;;;;14.50;6.90;;;;;;;0.33;89.59;100332.72;4989427;28;20030;-63
2021/12/09 08:19:05;;;;;;;14.50;6.97;;;;;;;0.32;89.68;100331.06;4987802;28;20030;-64
2021/12/09 08:21:33;;;;;;;13.68;6.78;;;;;;;0.38;89.92;100335.88;5006440;28;20029;-62
2021/12/09 08:23:59;;;;;;;12.63;6.57;;;;;;;0.41;89.74;100335.75;4997605;28;20463;-63
2021/12/09 08:26:25;;;;;;;13.88;6.60;;;;;;;0.40;89.90;100329.00;5007303;28;20037;-63
2021/12/09 08:28:50;;;;;;;14.25;6.70;;;;;;;0.43;89.96;100323.72;4985654;28;20482;-63
2021/12/09 08:31:16;;;;;;;14.10;7.05;;;;;;;0.48;89.89;100326.88;4988840;28;20037;-63
2021/12/09 08:33:41;;;;;;;13.60;6.80;;;;;;;0.51;89.92;100323.34;4989705;28;20033;-64
2021/12/09 08:36:07;;;;;;;15.85;6.90;;;;;;;0.51;89.53;100321.63;4986512;28;20037;-63
2021/12/09 08:38:32;;;;;;;13.65;6.53;;;;;;;0.59;90.00;100323.00;4988628;28;20521;-63
2021/12/09 08:40:58;;;;;;;15.52;7.35;;;;;;;0.61;89.95;100316.09;4988870;28;20030;-63
2021/12/09 08:43:23;;;;;;;13.70;6.95;;;;;;;0.62;90.41;100317.72;5006086;28;20418;-63
2021/12/09 08:45:50;;;;;;;13.85;6.80;;;;;;;0.64;90.15;100326.16;4991164;28;20486;-63
2021/12/09 08:48:16;;;;;;;14.52;7.05;;;;;;;0.69;90.40;100330.16;4990019;28;20026;-64
2021/12/09 08:50:44;;;;;;;15.55;7.00;;;;;;;0.72;89.90;100329.97;4999431;28;20119;-63
2021/12/09 08:53:13;;;;;;;13.23;7.00;;;;;;;0.75;90.22;100331.56;5002632;28;20121;-63
2021/12/09 08:55:40;;;;;;;12.80;6.72;;;;;;;0.79;90.04;100333.88;5007039;28;20049;-64
2021/12/09 08:58:06;;;;;;;14.15;6.55;;;;;;;0.81;89.96;100333.81;4996931;28;20058;-63
2021/12/09 09:00:33;;;;;;;16.58;7.70;;;;;;;0.83;89.70;100337.13;4988629;28;20118;-63
2021/12/09 09:02:59;;;;;;;14.25;7.15;;;;;;;0.85;89.99;100340.41;4991470;28;20144;-63
2021/12/09 09:05:25;;;;;;;12.65;7.00;;;;;;;0.87;90.49;100338.63;4990064;28;20089;-63
2021/12/09 09:07:51;;;;;;;13.93;6.88;;;;;;;0.91;90.40;100340.09;4990989;28;20037;-63
2021/12/09 09:10:20;;;;;;;12.18;6.82;;;;;;;0.93;90.28;100338.31;4992085;28;20030;-63
2021/12/09 09:12:46;;;;;;;13.68;6.97;;;;;;;0.96;89.94;100333.03;4994066;28;20073;-62
2021/12/09 09:15:14;;;;;;;16.27;7.38;;;;;;;0.99;89.89;100337.19;4995280;28;20113;-63
2021/12/09 09:17:40;;;;;;;15.63;6.75;;;;;;;1.02;90.34;100348.06;4991876;28;20030;-63
2021/12/09 09:22:41;;;;;;;16.13;7.53;;;;;;;1.09;89.77;100342.66;2733226;23;20055;-72
2021/12/09 09:25:09;;;;;;;12.60;7.63;;;;;;;1.11;90.07;100345.97;4988349;28;20494;-71
2021/12/09 09:27:35;;;;;;;14.93;6.97;;;;;;;1.14;90.35;100340.69;5001028;28;20561;-71
2021/12/09 09:30:03;;;;;;;14.18;7.55;;;;;;;1.13;90.21;100339.03;4980139;28;20065;-72
2021/12/09 09:32:28;;;;;;;15.30;7.13;;;;;;;1.16;89.79;100338.91;4998426;28;20164;-72
2021/12/09 09:34:54;;;;;;;15.52;7.38;;;;;;;1.19;90.35;100351.50;5009786;28;20184;-72
2021/12/09 09:37:20;;;;;;;15.60;7.45;;;;;;;1.19;90.34;100348.94;5000446;28;20026;-71
2021/12/09 09:39:47;;;;;;;16.50;8.00;;;;;;;1.25;90.29;100353.75;4995238;28;20037;-71
2021/12/09 09:44:47;;;;;;;12.50;7.53;;;;;;;1.30;90.14;100352.59;4995934;28;20034;-72
2021/12/09 09:47:14;;;;;;;14.13;7.80;;;;;;;1.30;90.14;100350.06;5010674;28;20018;-71
2021/12/09 09:49:40;;;;;;;16.30;8.68;;;;;;;1.35;89.98;100354.94;5005773;28;20029;-72
2021/12/09 09:52:08;;;;;;;14.30;8.15;;;;;;;1.36;90.18;100350.66;4978785;28;20034;-72
2021/12/09 09:54:38;;;;;;;17.33;8.48;;;;;;;1.38;89.95;100354.78;4994149;28;20572;-72
2021/12/09 09:57:05;;;;;;;14.02;8.43;;;;;;;1.42;90.43;100358.81;4992515;28;20515;-71
2021/12/09 09:59:31;;;;;;;16.23;8.23;;;;;;;1.44;90.25;100359.59;5001380;28;20325;-71
2021/12/09 10:01:57;;;;;;;15.73;8.35;;;;;;;1.45;90.63;100361.25;4998073;28;20069;-71
2021/12/09 10:04:33;;;;;;;14.82;8.63;;;;;;;1.49;90.41;100362.75;4984784;28;20029;-72
2021/12/09 10:07:00;;;;;;;16.75;8.52;;;;;;;1.48;90.17;100361.06;4998233;28;20038;-71
2021/12/09 10:09:26;;;;;;;14.98;8.88;;;;;;;1.52;90.18;100357.47;5007233;28;20041;-71
2021/12/09 10:11:52;;;;;;;14.63;8.90;;;;;;;1.53;90.12;100361.66;5007080;28;20030;-70
2021/12/09 10:14:20;;;;;;;14.23;8.45;;;;;;;1.59;90.34;100363.06;5007404;28;20505;-71
2021/12/09 10:17:09;;;;;;;18.17;8.73;;;;;;;1.62;90.08;100360.38;4999233;28;20030;-72
2021/12/09 10:19:36;;;;;;;;;;;;;;;1.70;89.88;100352.28;4982832;28;20026;-71
2021/12/09 10:22:11;;;;;;;15.93;8.93;;;;;;;1.65;89.96;100351.69;4985429;28;19957;-71
2021/12/09 10:24:39;;;;;;;16.88;9.20;;;;;;;1.68;90.46;100344.72;4993633;28;20034;-70
2021/12/09 10:27:07;;;;;;;15.52;8.75;;;;;;;1.70;90.41;100345.44;4984837;28;20141;-71
2021/12/09 10:29:38;;;;;;;18.50;8.98;;;;;;;1.73;89.92;100337.63;4998923;28;20064;-71
2021/12/09 10:32:09;;;;;;;15.73;9.50;;;;;;;1.76;90.35;100328.97;4975653;28;20444;-71
2021/12/09 10:34:40;;;;;;;13.32;8.52;;;;;;;1.79;90.36;100323.69;4989683;28;20073;-71
2021/12/09 10:37:20;;;;;;;15.73;9.18;;;;;;;1.82;90.45;100323.53;4991502;28;20030;-72
2021/12/09 10:40:07;;;;;;;16.42;9.20;;;;;;;1.88;90.54;100332.59;4990928;28;20037;-71
2021/12/09 10:42:45;;;;;;;15.25;8.95;;;;;;;1.88;90.54;100327.47;4980778;28;20025;-71
2021/12/09 10:45:17;;;;;;;17.00;9.05;;;;;;;1.88;90.63;100327.47;4991073;28;20079;-71
2021/12/09 10:50:29;;;;;;;14.63;9.70;;;;;;;1.95;91.05;100339.88;4985911;28;20038;-70
2021/12/09 10:53:31;;;;;;;14.68;9.30;;;;;;;1.97;90.10;100338.06;4991559;28;20036;-70
2021/12/09 10:55:58;;;;;;;16.38;9.05;;;;;;;2.01;90.49;100344.66;4987714;28;20027;-71
2021/12/09 10:58:26;;;;;;;19.05;10.07;;;;;;;2.00;90.63;100335.31;5001258;28;20022;-71
2021/12/09 11:00:58;;;;;;;13.97;9.43;;;;;;;2.07;90.41;100340.94;4986720;28;20081;-70
2021/12/09 11:03:37;;;;;;;19.15;10.63;;;;;;;2.09;90.45;100342.50;4995541;28;20311;-70
2021/12/09 11:06:15;;;;;;;13.27;9.23;;;;;;;2.13;91.00;100343.16;4978900;28;20038;-70
2021/12/09 11:08:46;;;;;;;17.60;9.93;;;;;;;2.15;90.64;100340.53;5002784;28;20113;-71
2021/12/09 11:11:33;;;;;;;13.25;9.18;;;;;;;2.18;90.67;100335.22;4980451;28;20041;-71
2021/12/09 11:14:05;;;;;;;14.15;9.60;;;;;;;2.17;90.82;100320.78;4984790;28;20031;-71
2021/12/09 11:16:36;;;;;;;13.88;9.32;;;;;;;2.21;90.36;100329.94;4990230;28;20064;-71
2021/12/09 11:19:24;;;;;;;14.00;9.20;;;;;;;2.24;91.06;100319.56;4991647;28;20303;-70
2021/12/09 11:21:59;;;;;;;14.75;9.20;;;;;;;2.26;90.30;100317.75;5000232;28;20060;-71
2021/12/09 11:24:30;;;;;;;12.65;9.10;;;;;;;2.29;90.38;100315.00;4982775;28;20031;-70
2021/12/09 11:27:01;;;;;;;12.25;8.90;;;;;;;2.29;90.93;100312.44;4990098;28;20879;-70
2021/12/09 11:29:50;;;;;;;12.85;8.85;;;;;;;2.34;90.71;100310.44;5000015;28;20057;-71
2021/12/09 11:32:28;;;;;;;13.27;8.82;;;;;;;2.35;90.94;100304.41;4997411;28;20518;-70
2021/12/09 11:35:04;;;;;;;13.23;9.27;;;;;;;2.36;90.83;100311.22;4994468;28;20030;-70
2021/12/09 11:37:40;;;;;;;14.10;9.27;;;;;;;2.37;90.17;100315.41;4992422;28;20430;-70
2021/12/09 11:40:06;;;;;;;15.45;9.75;;;;;;;2.40;90.69;100320.34;4985697;28;20515;-70